createdAt,value
2019-01-20T00:02:25.417Z,10.82
2019-01-20T00:04:52.000Z,10.35
2019-01-20T00:10:42.033Z,11.90
2019-01-20T00:13:08.811Z,9.60
2019-01-20T00:15:35.608Z,11.20
2019-01-20T00:18:02.881Z,11.75
2019-01-20T00:20:29.199Z,12.30
2019-01-20T00:22:55.668Z,12.60
2019-01-20T00:25:22.088Z,11.13
2019-01-20T00:27:51.720Z,12.50
2019-01-20T00:30:18.447Z,12.50
2019-01-20T00:32:44.974Z,11.45
2019-01-20T00:35:11.646Z,12.73
2019-01-20T00:37:37.905Z,12.47
2019-01-20T00:40:11.277Z,13.40
2019-01-20T00:42:37.742Z,13.38
2019-01-20T00:45:07.449Z,13.67
2019-01-20T00:47:34.007Z,13.30
2019-01-20T00:50:00.535Z,15.00
2019-01-20T00:56:02.432Z,13.67
2019-01-20T00:58:28.841Z,15.13
2019-01-20T01:00:55.268Z,16.30
2019-01-20T01:03:21.640Z,15.13
2019-01-20T01:05:48.167Z,16.30
2019-01-20T01:11:38.752Z,13.40
2019-01-20T01:14:05.353Z,17.50
2019-01-20T01:16:31.605Z,14.73
2019-01-20T01:18:58.116Z,15.50
2019-01-20T01:21:24.495Z,15.97
2019-01-20T01:23:50.834Z,17.97
2019-01-20T01:29:28.970Z,16.67
2019-01-20T01:35:30.876Z,15.40
2019-01-20T01:37:57.445Z,13.70
2019-01-20T01:40:23.916Z,15.17
2019-01-20T01:42:50.419Z,14.60
2019-01-20T01:45:18.411Z,18.13
2019-01-20T01:47:44.741Z,15.27
2019-01-20T01:50:12.304Z,14.95
2019-01-20T01:52:38.676Z,19.40
2019-01-20T01:55:07.242Z,17.30
2019-01-20T01:57:33.680Z,16.73
2019-01-20T02:00:00.196Z,18.63
2019-01-20T02:12:33.265Z,19.60
2019-01-20T02:14:59.813Z,17.40
2019-01-20T02:17:26.745Z,18.90
2019-01-20T02:19:53.187Z,18.63
2019-01-20T02:25:31.455Z,13.87
2019-01-20T02:27:58.736Z,18.70
2019-01-20T02:30:27.066Z,16.87
2019-01-20T02:32:54.079Z,16.73
2019-01-20T02:35:20.641Z,18.47
2019-01-20T02:37:47.158Z,18.50
2019-01-20T02:40:15.531Z,16.97
2019-01-20T02:42:42.064Z,17.23
2019-01-20T02:45:11.080Z,15.90
2019-01-20T02:47:37.459Z,16.27
2019-01-20T02:50:08.247Z,17.63
2019-01-20T02:52:34.870Z,14.65
2019-01-20T02:55:01.298Z,13.60
2019-01-20T02:57:27.989Z,17.57
2019-01-20T02:59:54.492Z,15.20
2019-01-20T03:02:21.023Z,15.55
2019-01-20T03:08:11.737Z,15.90
2019-01-20T03:10:38.058Z,15.50
2019-01-20T03:13:04.312Z,15.17
2019-01-20T03:15:30.829Z,15.97
2019-01-20T03:17:57.502Z,15.80
2019-01-20T03:20:26.819Z,12.93
2019-01-20T03:22:56.081Z,13.50
2019-01-20T03:28:48.632Z,14.20
2019-01-20T03:31:16.629Z,15.67
2019-01-20T03:33:43.211Z,17.05
2019-01-20T03:36:09.640Z,14.33
2019-01-20T03:38:35.923Z,16.30
2019-01-20T03:41:02.338Z,15.72
2019-01-20T03:43:29.260Z,18.70
2019-01-20T03:49:19.835Z,12.27
2019-01-20T03:51:46.208Z,14.03
2019-01-20T03:54:12.672Z,13.50
2019-01-20T03:56:39.273Z,12.93
2019-01-20T03:59:05.568Z,11.83
2019-01-20T04:01:32.171Z,14.53
2019-01-20T04:03:58.655Z,12.93
2019-01-20T04:06:29.669Z,12.50
2019-01-20T04:08:56.122Z,15.17
2019-01-20T04:11:22.609Z,12.58
2019-01-20T04:13:48.771Z,14.23
2019-01-20T04:16:15.254Z,13.72
2019-01-20T04:18:41.724Z,15.63
2019-01-20T04:21:08.077Z,14.70
2019-01-20T04:23:34.467Z,15.20
2019-01-20T04:26:00.940Z,14.97
2019-01-20T04:28:27.201Z,15.03
2019-01-20T04:30:53.630Z,16.87
2019-01-20T04:33:19.876Z,15.23
2019-01-20T04:35:46.260Z,15.27
2019-01-20T04:38:12.605Z,15.45
2019-01-20T04:40:38.843Z,17.80
2019-01-20T04:43:05.108Z,15.97
2019-01-20T04:45:31.568Z,16.70
2019-01-20T04:47:57.814Z,13.43
2019-01-20T04:50:24.374Z,17.70
2019-01-20T04:52:51.096Z,14.63
2019-01-20T04:55:17.720Z,15.43
2019-01-20T04:57:52.349Z,18.23
2019-01-20T05:00:24.085Z,17.67
2019-01-20T05:02:50.666Z,16.40
2019-01-20T05:05:17.827Z,14.97
2019-01-20T05:07:44.145Z,15.67
2019-01-20T05:10:13.030Z,15.50
2019-01-20T05:12:41.932Z,16.90
2019-01-20T05:15:11.441Z,16.00
2019-01-20T05:17:37.932Z,16.42
2019-01-20T05:20:06.573Z,17.67
2019-01-20T05:22:32.877Z,18.45
2019-01-20T05:25:04.009Z,15.93
2019-01-20T05:27:31.501Z,16.70
2019-01-20T05:29:58.740Z,15.97
2019-01-20T05:32:25.102Z,19.37
2019-01-20T05:34:51.377Z,18.20
2019-01-20T05:37:17.836Z,19.03
2019-01-20T05:39:44.239Z,18.07
2019-01-20T05:42:10.581Z,19.30
2019-01-20T05:44:37.009Z,19.30
2019-01-20T05:47:03.252Z,17.77
2019-01-20T05:49:29.873Z,19.00
2019-01-20T05:51:56.426Z,18.67
2019-01-20T05:54:22.965Z,20.05
2019-01-20T05:56:49.333Z,18.85
2019-01-20T05:59:15.700Z,20.23
2019-01-20T06:01:41.960Z,23.12
2019-01-20T06:04:08.235Z,21.00
2019-01-20T06:06:34.467Z,23.15
2019-01-20T06:09:00.815Z,22.65
2019-01-20T06:11:27.103Z,25.60
2019-01-20T06:13:53.457Z,23.20
2019-01-20T06:16:19.739Z,24.37
2019-01-20T06:18:46.039Z,23.40
2019-01-20T06:21:12.284Z,24.40
2019-01-20T06:27:02.402Z,23.43
2019-01-20T06:29:28.821Z,23.13
2019-01-20T06:31:55.372Z,20.80
2019-01-20T06:34:21.843Z,22.23
2019-01-20T06:36:48.938Z,25.30
2019-01-20T06:39:15.257Z,25.60
2019-01-20T06:41:41.615Z,24.95
2019-01-20T06:44:07.844Z,24.60
2019-01-20T06:46:34.285Z,23.47
2019-01-20T06:49:00.856Z,23.70
2019-01-20T06:51:27.941Z,24.50
2019-01-20T06:53:54.384Z,22.87
2019-01-20T06:56:20.663Z,22.82
2019-01-20T06:58:47.057Z,27.27
2019-01-20T07:01:13.380Z,23.20
2019-01-20T07:03:39.613Z,25.20
2019-01-20T07:06:06.048Z,24.00
2019-01-20T07:08:32.735Z,25.30
2019-01-20T07:10:59.454Z,22.13
2019-01-20T07:13:25.747Z,22.50
2019-01-20T07:15:52.256Z,21.30
2019-01-20T07:18:18.507Z,22.45
2019-01-20T07:20:44.830Z,21.43
2019-01-20T07:23:11.162Z,22.23
2019-01-20T07:25:37.411Z,23.47
2019-01-20T07:28:03.748Z,23.38
2019-01-20T07:30:30.069Z,25.37
2019-01-20T07:32:56.293Z,21.53
2019-01-20T07:35:22.672Z,24.07
2019-01-20T07:37:48.893Z,21.80
2019-01-20T07:40:18.246Z,26.30
2019-01-20T07:42:45.034Z,22.00
2019-01-20T07:45:13.091Z,22.30
2019-01-20T07:47:39.577Z,22.70
2019-01-20T07:50:15.757Z,21.70
2019-01-20T07:52:42.166Z,22.17
2019-01-20T07:55:09.122Z,22.43
2019-01-20T07:57:35.655Z,20.87
2019-01-20T08:03:26.789Z,17.92
2019-01-20T08:05:53.361Z,19.10
2019-01-20T08:08:19.591Z,21.20
2019-01-20T08:10:45.908Z,21.53
2019-01-20T08:13:12.270Z,22.58
2019-01-20T08:15:38.673Z,24.43
2019-01-20T08:18:05.264Z,21.93
2019-01-20T08:20:31.870Z,18.30
2019-01-20T08:22:58.498Z,22.23
2019-01-20T08:25:25.242Z,21.03
2019-01-20T08:27:51.489Z,19.20
2019-01-20T08:30:19.895Z,19.67
2019-01-20T08:32:46.379Z,20.90
2019-01-20T08:35:13.291Z,17.60
2019-01-20T08:37:40.272Z,19.50
2019-01-20T08:40:10.196Z,20.47
2019-01-20T08:42:37.030Z,21.27
2019-01-20T08:45:10.216Z,20.30
2019-01-20T08:47:37.970Z,21.85
2019-01-20T08:50:08.123Z,19.97
2019-01-20T08:52:34.745Z,22.03
2019-01-20T08:55:03.953Z,22.03
2019-01-20T08:57:30.608Z,21.67
2019-01-20T08:59:57.738Z,20.47
2019-01-20T09:02:24.670Z,20.77
2019-01-20T09:04:51.668Z,21.67
2019-01-20T09:07:18.063Z,19.57
2019-01-20T09:09:44.251Z,20.90
2019-01-20T09:12:10.468Z,20.70
2019-01-20T09:14:36.989Z,21.07
2019-01-20T09:17:03.677Z,24.40
2019-01-20T09:19:30.271Z,23.13
2019-01-20T09:21:56.612Z,22.37
2019-01-20T09:24:23.074Z,22.30
2019-01-20T09:26:49.439Z,22.33
2019-01-20T09:29:15.822Z,22.87
2019-01-20T09:31:42.376Z,22.43
2019-01-20T09:34:08.883Z,18.97
2019-01-20T09:36:35.165Z,18.80
2019-01-20T09:39:01.415Z,20.23
2019-01-20T09:41:27.893Z,20.50
2019-01-20T09:43:54.183Z,20.23
2019-01-20T09:46:20.609Z,20.17
2019-01-20T09:48:48.409Z,17.07
2019-01-20T09:51:14.837Z,19.43
2019-01-20T09:53:41.128Z,21.87
2019-01-20T09:56:07.537Z,21.20
2019-01-20T09:58:33.778Z,21.63
2019-01-20T10:01:00.046Z,20.27
2019-01-20T10:03:26.353Z,20.13
2019-01-20T10:05:52.636Z,19.27
2019-01-20T10:08:19.109Z,19.73
2019-01-20T10:10:45.355Z,19.57
2019-01-20T10:13:11.731Z,18.27
2019-01-20T10:15:38.127Z,18.23
2019-01-20T10:18:04.543Z,17.05
2019-01-20T10:20:32.119Z,18.63
2019-01-20T10:23:20.022Z,20.23
2019-01-20T10:26:06.029Z,17.50
2019-01-20T10:28:32.035Z,17.47
2019-01-20T10:30:58.081Z,17.80
2019-01-20T10:33:32.139Z,19.97
2019-01-20T10:36:00.657Z,16.57
2019-01-20T10:38:27.807Z,18.45
2019-01-20T10:41:00.337Z,18.43
2019-01-20T10:43:26.744Z,16.07
2019-01-20T10:45:53.162Z,17.23
2019-01-20T10:48:19.722Z,17.40
2019-01-20T10:50:46.740Z,17.20
2019-01-20T10:53:13.514Z,18.83
2019-01-20T10:55:39.883Z,16.52
2019-01-20T10:58:06.568Z,18.63
2019-01-20T11:00:36.460Z,17.30
2019-01-20T11:03:03.505Z,16.20
2019-01-20T11:05:30.913Z,17.77
2019-01-20T11:07:58.120Z,21.03
2019-01-20T11:10:24.442Z,20.03
2019-01-20T11:16:02.547Z,19.00
2019-01-20T11:18:29.013Z,21.03
2019-01-20T11:20:55.343Z,19.53
2019-01-20T11:23:23.252Z,17.73
2019-01-20T11:25:49.615Z,16.57
2019-01-20T11:28:15.912Z,18.60
2019-01-20T11:30:42.348Z,17.53
2019-01-20T11:33:08.758Z,17.67
2019-01-20T11:35:35.112Z,15.50
2019-01-20T11:38:07.960Z,15.97
2019-01-20T11:40:34.112Z,17.13
2019-01-20T11:43:00.826Z,14.67
2019-01-20T11:45:29.582Z,16.40
2019-01-20T11:47:56.677Z,17.07
2019-01-20T11:50:23.633Z,14.80
2019-01-20T11:52:50.103Z,17.63
2019-01-20T11:58:28.330Z,16.43
2019-01-20T12:00:54.906Z,18.70
2019-01-20T12:03:21.300Z,17.60
2019-01-20T12:05:48.004Z,17.80
2019-01-20T12:08:15.084Z,18.87
2019-01-20T12:10:41.669Z,18.53
2019-01-20T12:13:10.017Z,19.50
2019-01-20T12:15:36.475Z,17.20
2019-01-20T12:18:03.125Z,19.33
2019-01-20T12:20:29.442Z,19.70
2019-01-20T12:22:55.720Z,22.20
2019-01-20T12:25:22.170Z,18.70
2019-01-20T12:27:50.592Z,18.87
2019-01-20T12:30:27.504Z,20.20
2019-01-20T12:32:54.096Z,18.40
2019-01-20T12:35:20.584Z,18.70
2019-01-20T12:37:47.783Z,19.03
2019-01-20T12:40:23.563Z,16.20
2019-01-20T12:42:49.910Z,17.43
2019-01-20T12:45:16.404Z,18.67
2019-01-20T12:47:42.935Z,19.10
2019-01-20T12:50:12.729Z,17.03
2019-01-20T12:52:38.986Z,15.37
2019-01-20T12:55:06.460Z,16.10
2019-01-20T12:57:32.819Z,16.00
2019-01-20T12:59:59.082Z,16.73
2019-01-20T13:02:25.400Z,14.73
2019-01-20T13:04:56.335Z,14.93
2019-01-20T13:07:20.066Z,14.47
2019-01-20T13:09:46.686Z,15.03
2019-01-20T13:12:12.957Z,14.18
2019-01-20T13:14:39.356Z,14.13
2019-01-20T13:17:05.888Z,15.60
2019-01-20T13:19:32.244Z,13.87
2019-01-20T13:21:59.870Z,14.27
2019-01-20T13:24:26.245Z,15.33
2019-01-20T13:26:52.550Z,15.00
2019-01-20T13:29:19.728Z,16.13
2019-01-20T13:31:46.012Z,16.37
2019-01-20T13:34:12.258Z,14.60
2019-01-20T13:36:38.490Z,15.50
2019-01-20T13:42:39.987Z,16.55
2019-01-20T13:45:08.901Z,16.77
2019-01-20T13:47:35.251Z,18.53
2019-01-20T13:53:25.160Z,17.77
2019-01-20T13:55:51.401Z,20.47
2019-01-20T13:58:18.045Z,17.77
2019-01-20T14:00:44.821Z,18.83
2019-01-20T14:03:11.099Z,19.10
2019-01-20T14:05:37.595Z,19.57
2019-01-20T14:08:04.155Z,19.13
2019-01-20T14:13:42.483Z,15.53
2019-01-20T14:16:08.783Z,15.00
2019-01-20T14:18:35.285Z,15.70
2019-01-20T14:21:01.477Z,16.00
2019-01-20T14:23:27.738Z,15.03
2019-01-20T14:25:53.955Z,16.03
2019-01-20T14:28:20.126Z,16.27
2019-01-20T14:30:46.269Z,17.90
2019-01-20T14:36:35.930Z,20.13
2019-01-20T14:39:05.961Z,17.80
2019-01-20T14:45:10.202Z,19.40
2019-01-20T14:47:36.406Z,20.20
2019-01-20T14:50:05.857Z,23.90
2019-01-20T14:56:07.950Z,22.80
2019-01-20T14:58:34.333Z,22.27
2019-01-20T15:01:09.721Z,24.10
2019-01-20T15:06:47.452Z,19.10
2019-01-20T15:09:13.835Z,19.80
2019-01-20T15:11:40.026Z,18.27
2019-01-20T15:14:06.425Z,19.63
2019-01-20T15:16:32.661Z,19.90
2019-01-20T15:18:58.974Z,21.80
2019-01-20T15:24:38.448Z,21.77
2019-01-20T15:27:05.998Z,22.07
2019-01-20T15:29:32.367Z,21.20
2019-01-20T15:31:58.542Z,20.33
2019-01-20T15:34:25.120Z,18.90
2019-01-20T15:36:51.524Z,17.93
2019-01-20T15:39:21.835Z,18.95
2019-01-20T15:41:49.646Z,20.20
2019-01-20T15:44:15.948Z,17.98
2019-01-20T15:46:42.323Z,19.15
2019-01-20T15:49:08.598Z,20.30
2019-01-20T15:51:34.845Z,18.30
2019-01-20T15:54:01.331Z,19.87
2019-01-20T15:56:27.606Z,23.53
2019-01-20T15:58:53.889Z,22.70
2019-01-20T16:01:20.239Z,21.50
2019-01-20T16:03:46.471Z,22.10
2019-01-20T16:09:36.496Z,20.52
2019-01-20T16:12:03.528Z,18.77
2019-01-20T16:17:54.438Z,18.10
2019-01-20T16:20:21.218Z,19.67
2019-01-20T16:25:58.646Z,22.93
2019-01-20T16:28:25.006Z,22.07
2019-01-20T16:30:51.293Z,21.57
2019-01-20T16:33:17.751Z,21.90
2019-01-20T16:35:44.157Z,19.70
2019-01-20T16:38:10.584Z,21.70
2019-01-20T16:40:36.930Z,25.27
2019-01-20T16:43:03.702Z,22.17
2019-01-20T16:45:41.946Z,23.10
2019-01-20T16:53:56.046Z,23.30
2019-01-20T16:56:22.240Z,23.30
2019-01-20T16:58:51.443Z,22.83
2019-01-20T17:04:40.348Z,22.27
2019-01-20T17:07:06.573Z,25.83
2019-01-20T17:09:32.902Z,22.77
2019-01-20T17:12:01.247Z,25.60
2019-01-20T17:14:29.547Z,23.60
2019-01-20T17:16:55.776Z,24.07
2019-01-20T17:19:22.493Z,24.63
2019-01-20T17:25:24.485Z,22.83
2019-01-20T17:27:50.857Z,21.13
2019-01-20T17:30:20.163Z,21.00
2019-01-20T17:35:57.166Z,20.47
2019-01-20T17:38:23.616Z,20.97
2019-01-20T17:40:50.084Z,18.17
2019-01-20T17:46:40.618Z,19.20
2019-01-20T17:49:07.208Z,21.00
2019-01-20T17:51:36.730Z,17.93
2019-01-20T17:54:03.153Z,19.60
2019-01-20T17:56:29.454Z,16.97
2019-01-20T17:58:55.721Z,19.57
2019-01-20T18:01:21.908Z,17.80
2019-01-20T18:03:48.254Z,17.90
2019-01-20T18:06:14.655Z,20.00
2019-01-20T18:08:41.148Z,16.67
2019-01-20T18:11:07.464Z,17.77
2019-01-20T18:13:33.869Z,17.77
2019-01-20T18:19:23.502Z,17.97
2019-01-20T18:21:49.735Z,20.10
2019-01-20T18:24:15.995Z,16.40
2019-01-20T18:26:42.633Z,17.40
2019-01-20T18:29:08.949Z,16.87
2019-01-20T18:31:35.232Z,16.83
2019-01-20T18:34:01.471Z,15.23
2019-01-20T18:40:09.379Z,17.00
2019-01-20T18:42:35.740Z,17.97
2019-01-20T18:45:02.834Z,19.10
2019-01-20T18:50:52.836Z,18.37
2019-01-20T18:53:19.341Z,18.77
2019-01-20T18:55:45.878Z,20.35
2019-01-20T18:58:12.254Z,19.67
2019-01-20T19:00:41.958Z,19.90
2019-01-20T19:03:08.492Z,17.40
2019-01-20T19:05:34.771Z,19.87
2019-01-20T19:11:24.680Z,18.00
2019-01-20T19:13:51.204Z,16.30
2019-01-20T19:16:17.543Z,18.70
2019-01-20T19:22:18.709Z,17.25
2019-01-20T19:24:45.286Z,17.50
2019-01-20T19:27:11.683Z,18.67
2019-01-20T19:32:49.174Z,17.43
2019-01-20T19:38:38.737Z,18.12
2019-01-20T19:41:05.214Z,15.10
2019-01-20T19:43:31.477Z,17.32
2019-01-20T19:45:57.863Z,17.90
2019-01-20T19:48:24.168Z,17.62
2019-01-20T19:54:01.488Z,18.60
2019-01-20T19:56:28.313Z,18.77
2019-01-20T19:58:54.827Z,16.20
2019-01-20T20:01:21.392Z,16.73
2019-01-20T20:03:48.374Z,15.13
2019-01-20T20:06:14.873Z,14.85
2019-01-20T20:08:41.058Z,15.85
2019-01-20T20:11:07.317Z,14.03
2019-01-20T20:13:34.868Z,15.75
2019-01-20T20:16:01.497Z,15.53
2019-01-20T20:18:27.799Z,15.83
2019-01-20T20:20:54.168Z,17.30
2019-01-20T20:23:20.491Z,17.65
2019-01-20T20:25:47.051Z,17.57
2019-01-20T20:28:13.467Z,17.32
2019-01-20T20:30:39.832Z,18.62
2019-01-20T20:36:30.509Z,20.65
2019-01-20T20:38:57.029Z,20.90
2019-01-20T20:41:23.238Z,21.60
2019-01-20T20:43:50.095Z,20.35
2019-01-20T20:46:16.679Z,21.40
2019-01-20T20:48:43.688Z,21.27
2019-01-20T20:51:10.172Z,20.72
2019-01-20T20:57:00.942Z,18.03
2019-01-20T20:59:27.214Z,17.35
2019-01-20T21:01:53.690Z,17.87
2019-01-20T21:07:54.813Z,16.67
2019-01-20T21:10:21.113Z,17.93
2019-01-20T21:12:47.538Z,17.40
2019-01-20T21:15:15.270Z,19.87
2019-01-20T21:17:48.204Z,16.97
2019-01-20T21:20:13.755Z,15.53
2019-01-20T21:26:04.671Z,18.05
2019-01-20T21:28:30.967Z,17.87
2019-01-20T21:30:57.250Z,17.95
2019-01-20T21:33:23.816Z,16.93
2019-01-20T21:35:50.254Z,16.17
2019-01-20T21:38:16.609Z,15.45
2019-01-20T21:40:42.927Z,15.03
2019-01-20T21:43:09.350Z,16.32
2019-01-20T21:45:35.642Z,16.32
2019-01-20T21:48:01.853Z,16.47
2019-01-20T21:50:29.485Z,18.53
2019-01-20T21:52:55.919Z,18.67
2019-01-20T21:55:22.269Z,18.43
2019-01-20T21:57:48.561Z,19.67
2019-01-20T22:00:17.589Z,19.45
2019-01-20T22:02:43.925Z,17.07
2019-01-20T22:05:10.492Z,17.82
2019-01-20T22:11:00.037Z,15.77
2019-01-20T22:13:26.671Z,17.63
2019-01-20T22:15:53.192Z,18.07
2019-01-20T22:18:19.482Z,28.23
2019-01-20T22:20:45.961Z,21.30
2019-01-20T22:23:12.308Z,21.93
2019-01-20T22:25:38.915Z,24.43
2019-01-20T22:28:05.678Z,18.70
2019-01-20T22:30:32.135Z,22.40
2019-01-20T22:32:58.363Z,21.05
2019-01-20T22:35:24.591Z,19.00
2019-01-20T22:37:50.983Z,20.47
2019-01-20T22:43:40.856Z,17.10
2019-01-20T22:46:09.108Z,16.73
2019-01-20T22:48:35.648Z,18.02
2019-01-20T22:51:02.059Z,16.47
2019-01-20T22:53:28.431Z,18.48
2019-01-20T22:55:55.232Z,17.95
2019-01-20T22:58:21.607Z,16.93
2019-01-20T23:00:52.351Z,16.87
2019-01-20T23:03:18.820Z,18.90
2019-01-20T23:05:45.471Z,17.65
2019-01-20T23:08:11.712Z,18.45
2019-01-20T23:10:39.732Z,18.65
2019-01-20T23:13:06.869Z,19.70
2019-01-20T23:15:33.359Z,18.00
2019-01-20T23:17:59.919Z,17.80
2019-01-20T23:20:26.080Z,18.25
2019-01-20T23:22:52.437Z,17.77
2019-01-20T23:25:18.713Z,17.85
2019-01-20T23:27:45.267Z,18.73
2019-01-20T23:30:14.125Z,18.40
2019-01-20T23:32:41.499Z,18.30
2019-01-20T23:35:08.123Z,18.35
2019-01-20T23:37:34.456Z,15.63
2019-01-20T23:40:00.854Z,16.87
2019-01-20T23:42:27.247Z,16.67
2019-01-20T23:44:53.478Z,17.27
2019-01-20T23:47:19.821Z,16.40
2019-01-20T23:52:57.433Z,15.83
2019-01-20T23:55:23.826Z,17.15
2019-01-20T23:57:50.261Z,16.20
